Time;durP1;ratioP1;P1;durP2;ratioP2;P2;SDS_P1;SDS_P2;PMS_P1;PMS_P2;Temp;Humidity;BMP_temperature;BMP_pressure;BME280_temperature;BME280_humidity;BME280_pressure;Samples;Min_cycle;Max_cycle;Signal;HPM_P1;HPM_P2
2024/01/27 00:00:16;;;;;;;11.48;3.17;;;;;;;0.25;100.00;103254.69;1029636;28;20298;-51
2024/01/27 00:01:34;;;;;;;9.80;3.22;;;;;;;0.18;100.00;103250.72;1025832;28;20306;-48
2024/01/27 00:02:49;;;;;;;13.73;3.05;;;;;;;0.07;100.00;103249.69;1026555;28;20298;-46
2024/01/27 00:03:56;;;;;;;12.70;3.05;;;;;;;0.21;100.00;103245.31;1031005;28;20305;-46
2024/01/27 00:05:06;;;;;;;12.27;3.30;;;;;;;0.23;100.00;103245.22;1035421;28;20284;-49
2024/01/27 00:07:40;;;;;;;6.40;2.53;;;;;;;0.27;100.00;103254.59;1038499;28;20356;-48
2024/01/27 00:08:50;;;;;;;15.27;2.63;;;;;;;0.15;100.00;103258.78;1037480;28;20317;-48
2024/01/27 00:10:04;;;;;;;14.40;3.03;;;;;;;0.42;100.00;103260.72;1022238;29;21008;-48
2024/01/27 00:11:04;;;;;;;8.00;3.10;;;;;;;0.32;100.00;103265.66;1020754;29;20304;-48
2024/01/27 00:11:54;;;;;;;;;;;;;;;;;;;;;
2024/01/27 00:12:52;;;;;;;12.68;3.00;;;;;;;0.29;100.00;103261.47;1015113;29;20328;-46
2024/01/27 00:13:50;;;;;;;10.07;3.28;;;;;;;0.31;100.00;103264.00;1023390;29;20342;-49
2024/01/27 00:14:43;;;;;;;12.63;3.60;;;;;;;0.28;100.00;103270.25;1032226;28;20301;-47
2024/01/27 00:15:44;;;;;;;15.90;4.03;;;;;;;0.35;100.00;103269.88;1026001;28;20829;-48
2024/01/27 00:16:47;;;;;;;13.73;2.67;;;;;;;0.19;100.00;103270.78;1023042;29;20306;-48
2024/01/27 00:17:51;;;;;;;12.63;3.47;;;;;;;0.24;100.00;103260.00;1017672;29;20438;-49
2024/01/27 00:19:01;;;;;;;16.55;3.40;;;;;;;0.04;100.00;103255.09;1021205;28;20390;-47
2024/01/27 00:20:10;;;;;;;12.63;2.85;;;;;;;0.27;100.00;103263.31;1015148;29;20388;-49
2024/01/27 00:21:10;;;;;;;11.88;3.17;;;;;;;0.30;100.00;103257.91;1034881;28;20301;-48
2024/01/27 00:22:13;;;;;;;;;;;;;;;;;;;;;
2024/01/27 00:23:04;;;;;;;33.67;6.15;;;;;;;0.34;100.00;103257.72;1032114;28;20426;-48
2024/01/27 00:24:38;;;;;;;14.40;3.10;;;;;;;0.35;100.00;103264.66;1035805;28;20071;-47
2024/01/27 00:25:26;;;;;;;16.33;3.03;;;;;;;0.34;100.00;103261.19;1028504;28;20579;-48
2024/01/27 00:26:42;;;;;;;9.15;2.90;;;;;;;0.24;100.00;103252.16;1027110;28;20868;-48
2024/01/27 00:28:20;;;;;;;18.80;3.80;;;;;;;0.15;100.00;103253.53;1036407;28;20282;-47
2024/01/27 00:29:42;;;;;;;8.07;2.45;;;;;;;0.07;100.00;103252.31;1028151;28;20336;-47
2024/01/27 00:30:34;;;;;;;12.45;4.32;;;;;;;0.11;100.00;103253.81;1029412;28;20305;-48
2024/01/27 00:31:23;;;;;;;19.50;3.67;;;;;;;0.10;100.00;103250.34;1022076;29;20493;-48
2024/01/27 00:32:24;;;;;;;12.07;3.22;;;;;;;0.25;100.00;103252.06;1020952;29;20369;-48
2024/01/27 00:34:36;;;;;;;11.30;3.13;;;;;;;0.32;100.00;103260.44;1029015;28;20321;-48
2024/01/27 00:35:38;;;;;;;17.10;4.00;;;;;;;0.41;100.00;103269.53;1025562;28;20853;-47
2024/01/27 00:36:48;;;;;;;6.90;3.05;;;;;;;0.55;100.00;103251.22;1031177;28;20804;-49
2024/01/27 00:37:49;;;;;;;15.40;3.53;;;;;;;0.58;100.00;103261.50;1033356;28;20345;-47
2024/01/27 00:38:23;;;;;;;19.30;3.78;;;;;;;0.61;100.00;103261.31;1033172;28;20327;-47
2024/01/27 00:39:14;;;;;;;14.75;2.55;;;;;;;0.54;100.00;103254.75;1024974;28;20311;-49
2024/01/27 00:40:06;;;;;;;19.45;4.07;;;;;;;0.61;100.00;103256.94;1026106;29;20311;-49
2024/01/27 00:41:00;;;;;;;12.68;4.63;;;;;;;0.60;100.00;103257.03;1021815;29;20311;-48
2024/01/27 00:42:16;;;;;;;14.60;3.28;;;;;;;0.57;100.00;103265.06;1030227;28;20291;-52
2024/01/27 00:43:21;;;;;;;;;;;;;;;;;;;;;
2024/01/27 00:45:20;;;;;;;12.27;3.17;;;;;;;0.69;100.00;103264.31;1026693;28;20298;-50
2024/01/27 00:46:28;;;;;;;16.83;3.53;;;;;;;0.60;100.00;103270.97;1027703;28;20305;-49
2024/01/27 00:47:38;;;;;;;20.23;3.33;;;;;;;0.55;100.00;103259.06;1024973;29;20355;-47
2024/01/27 00:48:26;;;;;;;19.17;4.20;;;;;;;0.59;100.00;103253.56;1024501;28;20306;-48
2024/01/27 00:49:28;;;;;;;18.08;3.40;;;;;;;0.58;100.00;103266.75;1023382;29;20805;-47
2024/01/27 00:50:22;;;;;;;10.77;4.57;;;;;;;0.64;100.00;103265.53;1025632;29;20313;-48
2024/01/27 00:51:07;;;;;;;12.93;3.08;;;;;;;0.68;100.00;103273.13;1024506;28;20378;-50
2024/01/27 00:51:59;;;;;;;17.55;4.13;;;;;;;0.74;100.00;103271.91;1026763;28;20310;-47
2024/01/27 00:53:02;;;;;;;16.30;3.70;;;;;;;0.69;100.00;103274.81;1025172;29;20305;-49
2024/01/27 00:53:34;;;;;;;15.10;3.40;;;;;;;0.65;100.00;103278.56;1028188;28;20354;-48
2024/01/27 00:54:28;;;;;;;12.98;4.30;;;;;;;0.71;100.00;103270.31;1029871;28;20394;-47
2024/01/27 00:55:05;;;;;;;19.17;6.95;;;;;;;0.73;100.00;103271.06;1031335;28;20808;-46
2024/01/27 00:55:38;;;;;;;13.85;4.97;;;;;;;0.68;100.00;103278.38;1032709;28;20298;-47
2024/01/27 00:56:48;;;;;;;12.57;3.38;;;;;;;0.79;100.00;103273.31;1028969;28;20398;-46
2024/01/27 00:57:37;;;;;;;12.25;4.20;;;;;;;0.74;100.00;103272.75;1031325;28;20309;-49
2024/01/27 00:58:16;;;;;;;14.60;3.50;;;;;;;0.67;100.00;103266.19;1033230;28;20301;-48
2024/01/27 00:59:28;;;;;;;20.10;3.47;;;;;;;0.74;100.00;103270.13;1039256;28;20296;-47
2024/01/27 01:01:57;;;;;;;15.60;3.88;;;;;;;0.69;100.00;103269.56;1035542;28;20844;-48
2024/01/27 01:03:10;;;;;;;12.85;3.80;;;;;;;0.61;100.00;103269.19;1037013;28;20319;-49
2024/01/27 01:04:00;;;;;;;11.02;3.83;;;;;;;0.54;100.00;103275.72;1025589;29;20310;-46
2024/01/27 01:05:03;;;;;;;6.85;2.60;;;;;;;0.51;100.00;103271.50;1033736;28;20387;-47
2024/01/27 01:06:00;;;;;;;15.60;3.35;;;;;;;0.51;100.00;103275.91;1025054;29;20376;-49
2024/01/27 01:08:38;;;;;;;11.88;3.15;;;;;;;0.60;100.00;103270.13;1033109;28;20317;-50
2024/01/27 01:12:09;;;;;;;;;;;;;;;;;;;;;
2024/01/27 01:13:15;;;;;;;9.88;3.35;;;;;;;0.21;100.00;103273.28;1029685;28;20305;-46
2024/01/27 01:14:42;;;;;;;22.27;3.47;;;;;;;0.14;100.00;103278.06;1032596;28;20074;-50
2024/01/27 01:15:52;;;;;;;9.65;4.22;;;;;;;0.06;100.00;103280.28;1035343;28;20309;-48
2024/01/27 01:16:52;;;;;;;19.30;3.05;;;;;;;0.35;100.00;103280.38;1023609;28;20311;-47
2024/01/27 01:17:40;;;;;;;;;;;;;;;0.47;100.00;103282.25;1033074;28;20387;-50
2024/01/27 01:18:18;;;;;;;8.25;3.75;;;;;;;0.43;100.00;103286.00;1027577;28;19953;-48
2024/01/27 01:19:08;;;;;;;9.50;3.45;;;;;;;0.46;100.00;103280.56;1023826;28;20686;-46
2024/01/27 01:20:29;;;;;;;9.57;3.40;;;;;;;0.34;100.00;103278.69;1026076;28;20133;-48
2024/01/27 01:21:26;;;;;;;14.95;4.22;;;;;;;0.45;100.00;103277.13;1029584;28;20306;-46
2024/01/27 01:22:26;;;;;;;12.73;4.18;;;;;;;0.53;100.00;103274.88;1020093;28;20326;-48
2024/01/27 01:23:31;;;;;;;18.58;3.90;;;;;;;0.52;100.00;103278.44;1021126;29;20311;-48
2024/01/27 01:24:23;;;;;;;24.48;5.85;;;;;;;0.62;100.00;103276.13;1027402;28;20994;-46
2024/01/27 01:25:12;;;;;;;21.90;3.60;;;;;;;0.43;100.00;103278.13;1035190;28;20300;-49
2024/01/27 01:26:21;;;;;;;15.75;3.33;;;;;;;0.29;100.00;103277.19;1031312;28;20325;-48
2024/01/27 01:27:05;;;;;;;18.83;4.32;;;;;;;0.30;100.00;103284.13;1030863;28;20822;-48
2024/01/27 01:27:37;;;;;;;17.77;3.20;;;;;;;0.36;100.00;103276.81;1035530;28;20296;-49
2024/01/27 01:30:13;;;;;;;22.15;3.28;;;;;;;0.40;100.00;103275.69;1036647;28;20320;-49
2024/01/27 01:31:11;;;;;;;12.38;3.42;;;;;;;0.28;100.00;103280.75;1031329;28;20309;-46
2024/01/27 01:32:18;;;;;;;;;;;;;;;;;;;;;
2024/01/27 01:33:11;;;;;;;6.30;3.40;;;;;;;0.02;100.00;103284.00;1027896;28;20897;-49
2024/01/27 01:34:02;;;;;;;16.73;2.65;;;;;;;-0.06;100.00;103275.72;1033264;28;20298;-48
2024/01/27 01:35:01;;;;;;;8.50;2.97;;;;;;;-0.13;100.00;103283.09;1021689;29;21006;-45
2024/01/27 01:35:59;;;;;;;11.90;2.65;;;;;;;-0.05;100.00;103287.88;1023952;28;20386;-49
2024/01/27 01:37:21;;;;;;;9.38;2.85;;;;;;;-0.28;100.00;103285.72;1025492;29;20291;-46
2024/01/27 01:38:08;;;;;;;13.13;2.63;;;;;;;-0.12;100.00;103291.78;1028513;28;20721;-48
2024/01/27 01:39:00;;;;;;;10.13;3.53;;;;;;;-0.10;100.00;103289.94;1032373;28;20410;-52
2024/01/27 01:40:13;;;;;;;12.45;4.38;;;;;;;-0.28;100.00;103283.09;1037848;28;20308;-49
2024/01/27 01:41:14;;;;;;;12.85;3.25;;;;;;;-0.33;100.00;103289.44;1035898;28;20293;-49
2024/01/27 01:42:07;;;;;;;18.80;3.53;;;;;;;-0.44;100.00;103283.97;1025853;28;20043;-48
2024/01/27 01:43:41;;;;;;;13.43;3.83;;;;;;;-0.33;100.00;103292.06;1027834;28;20298;-47
2024/01/27 01:45:04;;;;;;;17.42;3.38;;;;;;;-0.27;100.00;103292.63;1037132;28;20370;-48
2024/01/27 01:46:09;;;;;;;18.25;3.97;;;;;;;-0.18;100.00;103297.38;1032852;28;20576;-49
2024/01/27 01:47:18;;;;;;;19.13;4.93;;;;;;;0.03;100.00;103306.66;1029234;28;20309;-48
2024/01/27 01:48:33;;;;;;;10.20;3.05;;;;;;;-0.03;100.00;103293.88;1031358;28;20718;-49
2024/01/27 01:49:55;;;;;;;10.68;2.97;;;;;;;-0.03;100.00;103297.34;1035664;28;20321;-48
2024/01/27 01:50:48;;;;;;;14.20;4.00;;;;;;;-0.10;100.00;103300.41;1030347;28;20336;-46
2024/01/27 01:51:54;;;;;;;21.75;3.63;;;;;;;-0.03;100.00;103291.25;1033823;28;20301;-48
2024/01/27 01:53:14;;;;;;;11.35;5.10;;;;;;;0.12;100.00;103295.66;1021569;28;21265;-48
2024/01/27 01:54:32;;;;;;;17.48;4.40;;;;;;;-0.11;100.00;103299.56;1033214;28;20293;-46
2024/01/27 01:55:47;;;;;;;19.25;4.55;;;;;;;-0.14;100.00;103301.50;1033362;28;20305;-50
2024/01/27 01:56:55;;;;;;;18.00;5.05;;;;;;;-0.12;100.00;103297.03;1034320;28;20450;-47
2024/01/27 01:57:48;;;;;;;12.93;4.68;;;;;;;0.06;100.00;103298.63;1026385;29;20303;-49
2024/01/27 01:58:57;;;;;;;8.48;3.58;;;;;;;0.05;100.00;103299.56;1024569;29;20371;-48
2024/01/27 01:59:49;;;;;;;13.43;4.10;;;;;;;0.20;100.00;103292.56;1030829;28;20312;-46
2024/01/27 02:01:12;;;;;;;18.33;4.63;;;;;;;0.11;100.00;103298.34;1032385;28;20293;-47
2024/01/27 02:02:26;;;;;;;12.25;3.65;;;;;;;0.07;100.00;103300.31;1029450;28;20302;-50
2024/01/27 02:03:27;;;;;;;15.98;5.47;;;;;;;0.00;100.00;103296.34;1033656;28;20305;-48
2024/01/27 02:04:16;;;;;;;9.25;3.78;;;;;;;-0.10;100.00;103305.66;1038468;28;20316;-48
2024/01/27 02:05:05;;;;;;;16.42;3.97;;;;;;;0.00;100.00;103301.59;1034300;28;20312;-46
2024/01/27 02:05:52;;;;;;;17.45;4.30;;;;;;;0.10;100.00;103302.75;1027705;28;20422;-48
2024/01/27 02:06:46;;;;;;;18.08;4.40;;;;;;;0.17;100.00;103306.69;1035008;28;20861;-49
2024/01/27 02:07:31;;;;;;;15.35;4.03;;;;;;;0.10;100.00;103300.13;1036194;28;20300;-48
2024/01/27 02:08:39;;;;;;;17.00;4.75;;;;;;;0.26;100.00;103303.53;1033735;28;20309;-48
2024/01/27 02:09:33;;;;;;;18.08;4.88;;;;;;;0.19;100.00;103302.22;1031672;28;20337;-49
2024/01/27 02:11:43;;;;;;;8.32;3.75;;;;;;;0.13;100.00;103309.59;1035202;28;21061;-48
2024/01/27 02:12:42;;;;;;;;;;;;;;;0.28;100.00;103306.94;1038527;28;20308;-47
2024/01/27 02:13:32;;;;;;;18.88;4.93;;;;;;;0.36;100.00;103308.28;1037376;28;19929;-46
2024/01/27 02:14:29;;;;;;;17.60;4.00;;;;;;;0.48;100.00;103302.31;1033905;28;20341;-49
2024/01/27 02:15:39;;;;;;;14.63;4.55;;;;;;;0.26;100.00;103302.69;1033085;28;20350;-50
2024/01/27 02:17:00;;;;;;;14.38;4.43;;;;;;;0.27;100.00;103302.63;1031856;28;20380;-48
2024/01/27 02:18:02;;;;;;;14.90;4.47;;;;;;;0.09;100.00;103305.47;1034285;28;20046;-49
2024/01/27 02:19:24;;;;;;;11.82;4.97;;;;;;;0.10;100.00;103313.22;1033727;28;20305;-47
2024/01/27 02:20:39;;;;;;;18.85;4.70;;;;;;;0.15;100.00;103311.19;1029855;28;20310;-47
2024/01/27 02:21:51;;;;;;;15.55;4.85;;;;;;;0.24;100.00;103310.66;1039864;28;20766;-49
2024/01/27 02:22:44;;;;;;;19.30;5.15;;;;;;;0.33;100.00;103308.47;1037451;28;20750;-48
2024/01/27 02:23:45;;;;;;;19.92;5.07;;;;;;;0.33;100.00;103305.84;1033683;28;20357;-46
2024/01/27 02:24:46;;;;;;;23.05;4.93;;;;;;;0.36;100.00;103309.13;1037597;28;20779;-49
2024/01/27 02:25:38;;;;;;;15.52;5.22;;;;;;;0.24;100.00;103315.91;1043067;28;20307;-46
2024/01/27 02:26:20;;;;;;;23.30;4.72;;;;;;;0.25;100.00;103312.34;1043088;28;20295;-50
2024/01/27 02:27:06;;;;;;;13.68;4.40;;;;;;;0.23;100.00;103308.97;1043429;28;20851;-51
2024/01/27 02:27:48;;;;;;;24.30;6.85;;;;;;;0.28;100.00;103306.09;1043372;28;20386;-47
2024/01/27 02:28:53;;;;;;;19.17;4.35;;;;;;;0.18;100.00;103303.16;1036115;28;20346;-47
2024/01/27 02:29:43;;;;;;;19.60;4.82;;;;;;;0.23;100.00;103301.09;1030279;28;20307;-47
2024/01/27 02:30:35;;;;;;;14.25;4.18;;;;;;;0.24;100.00;103300.16;1021242;29;20698;-46
2024/01/27 02:31:28;;;;;;;15.70;5.80;;;;;;;0.16;100.00;103305.00;1035435;28;20323;-48
2024/01/27 02:32:37;;;;;;;14.23;5.13;;;;;;;0.23;100.00;103298.47;1035765;28;20297;-48
2024/01/27 02:33:51;;;;;;;13.85;4.28;;;;;;;0.22;100.00;103298.56;1033907;28;20436;-47
2024/01/27 02:34:54;;;;;;;14.68;5.00;;;;;;;0.14;100.00;103304.25;1033935;28;20320;-49
2024/01/27 02:35:51;;;;;;;17.38;4.45;;;;;;;0.16;100.00;103306.78;1032196;28;20320;-51
2024/01/27 02:37:02;;;;;;;19.38;5.22;;;;;;;0.16;100.00;103298.94;1032696;28;20328;-49
2024/01/27 02:37:53;;;;;;;16.60;4.88;;;;;;;0.14;100.00;103299.03;1035577;28;20339;-47
2024/01/27 02:38:43;;;;;;;13.27;4.88;;;;;;;0.26;100.00;103293.06;1027773;28;20047;-48
2024/01/27 02:39:32;;;;;;;11.27;4.00;;;;;;;0.25;100.00;103301.84;1032477;28;20301;-50
2024/01/27 02:40:28;;;;;;;18.10;4.95;;;;;;;0.22;100.00;103306.44;1039971;28;20762;-49
2024/01/27 02:41:40;;;;;;;9.88;5.15;;;;;;;0.31;100.00;103300.69;1031751;28;20353;-50
2024/01/27 02:42:34;;;;;;;11.57;4.03;;;;;;;0.32;100.00;103301.53;1040075;28;20305;-46
2024/01/27 02:43:29;;;;;;;19.00;5.50;;;;;;;0.24;100.00;103289.69;1032128;28;20309;-46
2024/01/27 02:44:13;;;;;;;20.02;5.05;;;;;;;0.35;100.00;103290.84;1031549;28;20313;-47
2024/01/27 02:45:03;;;;;;;18.85;4.50;;;;;;;0.31;100.00;103290.19;1028330;28;20306;-47
2024/01/27 02:45:55;;;;;;;16.27;5.25;;;;;;;0.33;100.00;103287.50;1031992;28;20392;-47
2024/01/27 02:47:28;;;;;;;7.65;3.95;;;;;;;0.16;100.00;103284.06;1034442;28;20313;-47
2024/01/27 02:48:22;;;;;;;24.42;5.35;;;;;;;0.17;100.00;103288.34;1037575;28;20399;-49
2024/01/27 02:49:27;;;;;;;14.00;5.63;;;;;;;0.19;100.00;103289.13;1031377;28;20460;-47
2024/01/27 02:50:19;;;;;;;12.07;4.53;;;;;;;0.29;100.00;103295.53;1034284;28;20329;-50
2024/01/27 02:51:10;;;;;;;12.25;5.00;;;;;;;0.16;100.00;103281.44;1032117;28;20367;-48
2024/01/27 02:51:53;;;;;;;15.85;4.10;;;;;;;0.12;100.00;103295.66;1034251;28;20359;-47
2024/01/27 02:52:37;;;;;;;17.90;5.07;;;;;;;0.02;100.00;103291.88;1036433;28;20451;-48
2024/01/27 02:54:55;;;;;;;14.68;5.15;;;;;;;0.00;100.00;103285.88;1031891;28;20617;-45
2024/01/27 02:55:37;;;;;;;18.85;5.63;;;;;;;-0.13;100.00;103280.47;1033728;28;20054;-49
2024/01/27 02:56:32;;;;;;;11.60;5.47;;;;;;;-0.17;100.00;103288.59;1027815;28;20318;-47
2024/01/27 02:57:30;;;;;;;15.20;4.72;;;;;;;-0.19;100.00;103293.91;1033772;28;20778;-51
2024/01/27 02:58:14;;;;;;;15.88;5.43;;;;;;;-0.06;100.00;103297.53;1029513;28;20748;-51
2024/01/27 02:59:06;;;;;;;13.05;4.65;;;;;;;-0.04;100.00;103286.94;1023200;29;20334;-48
2024/01/27 03:00:19;;;;;;;9.60;4.10;;;;;;;-0.15;100.00;103295.44;1030951;28;20404;-48
2024/01/27 03:01:24;;;;;;;22.48;5.97;;;;;;;-0.11;100.00;103289.09;1038321;28;20300;-49
2024/01/27 03:02:03;;;;;;;16.45;4.38;;;;;;;-0.07;100.00;103289.75;1035216;28;21036;-49
2024/01/27 03:03:44;;;;;;;19.75;6.00;;;;;;;-0.22;100.00;103285.38;1031823;28;20285;-49
2024/01/27 03:04:40;;;;;;;16.50;4.25;;;;;;;-0.16;100.00;103290.28;1037443;28;20739;-49
2024/01/27 03:05:34;;;;;;;23.42;4.75;;;;;;;-0.39;100.00;103289.78;1039755;28;20073;-47
2024/01/27 03:06:42;;;;;;;25.70;4.38;;;;;;;-0.20;100.00;103291.38;1024390;28;20817;-48
2024/01/27 03:07:49;;;;;;;11.32;3.92;;;;;;;-0.26;100.00;103291.72;1021594;28;20326;-49
2024/01/27 03:10:14;;;;;;;20.23;4.60;;;;;;;-0.43;100.00;103292.66;1033724;28;20014;-48
2024/01/27 03:11:12;;;;;;;;;;;;;;;;;;;;;
2024/01/27 03:12:32;;;;;;;9.27;3.92;;;;;;;-0.09;100.00;103292.47;1030421;28;20409;-47
2024/01/27 03:13:10;;;;;;;16.60;5.53;;;;;;;-0.11;100.00;103290.84;1019470;29;20312;-48
2024/01/27 03:14:17;;;;;;;17.60;4.05;;;;;;;-0.15;100.00;103297.22;1024291;28;20698;-46
2024/01/27 03:16:13;;;;;;;11.77;5.53;;;;;;;-0.11;100.00;103298.72;1035518;28;20664;-49
2024/01/27 03:17:35;;;;;;;15.50;4.60;;;;;;;-0.05;100.00;103303.59;1032713;28;20297;-49
2024/01/27 03:18:27;;;;;;;8.32;4.55;;;;;;;0.04;100.00;103290.00;1019277;29;20307;-51
2024/01/27 03:19:27;;;;;;;13.38;5.78;;;;;;;0.12;100.00;103298.25;1026802;28;20401;-49
2024/01/27 03:20:30;;;;;;;15.65;4.18;;;;;;;0.09;100.00;103293.19;1024925;28;20434;-47
2024/01/27 03:21:43;;;;;;;20.10;6.90;;;;;;;0.04;100.00;103297.03;1033671;28;20388;-48
2024/01/27 03:22:51;;;;;;;12.85;4.68;;;;;;;0.01;100.00;103302.44;1030924;28;20316;-46
2024/01/27 03:23:51;;;;;;;18.75;4.78;;;;;;;0.17;100.00;103304.09;1039891;28;20725;-49
2024/01/27 03:24:41;;;;;;;11.73;4.22;;;;;;;0.21;100.00;103310.84;1040770;28;20300;-46
2024/01/27 03:25:27;;;;;;;11.95;5.25;;;;;;;0.17;100.00;103311.94;1032749;28;20305;-47
2024/01/27 03:26:33;;;;;;;20.58;5.63;;;;;;;0.09;100.00;103303.69;1029608;28;20309;-46
2024/01/27 03:27:24;;;;;;;18.13;4.93;;;;;;;0.06;100.00;103305.63;1034539;28;20315;-48
2024/01/27 03:28:30;;;;;;;11.68;4.22;;;;;;;0.14;100.00;103306.88;1034158;28;20688;-47
2024/01/27 03:29:24;;;;;;;21.10;5.20;;;;;;;0.13;100.00;103306.97;1040987;28;20299;-50
2024/01/27 03:30:26;;;;;;;11.88;4.38;;;;;;;0.24;100.00;103300.16;1042178;28;20315;-49
2024/01/27 03:31:09;;;;;;;16.52;4.75;;;;;;;0.20;100.00;103293.41;1035613;28;20309;-50
2024/01/27 03:32:16;;;;;;;12.32;4.20;;;;;;;0.24;100.00;103292.31;1026868;28;20298;-49
2024/01/27 03:33:17;;;;;;;14.50;4.28;;;;;;;0.24;100.00;103300.16;1023268;29;20828;-49
2024/01/27 03:34:12;;;;;;;;;;;;;;;;;;;;;
2024/01/27 03:35:03;;;;;;;24.83;5.50;;;;;;;0.24;100.00;103307.19;1019524;29;20381;-48
2024/01/27 03:35:47;;;;;;;12.73;5.47;;;;;;;0.17;100.00;103309.31;1021198;29;20343;-48
2024/01/27 03:36:47;;;;;;;18.80;5.30;;;;;;;0.20;100.00;103293.41;1032278;28;20313;-46
2024/01/27 03:37:44;;;;;;;20.15;4.97;;;;;;;0.10;100.00;103308.00;1026273;28;20397;-45
2024/01/27 03:38:37;;;;;;;15.32;3.90;;;;;;;0.06;100.00;103308.25;1026521;28;20379;-48
2024/01/27 03:39:30;;;;;;;16.13;4.80;;;;;;;0.02;100.00;103304.97;1023122;28;20052;-47
2024/01/27 03:40:11;;;;;;;16.65;4.30;;;;;;;0.08;100.00;103304.63;1027961;28;20361;-47
2024/01/27 03:40:43;;;;;;;22.38;4.47;;;;;;;0.01;100.00;103308.53;1030622;28;20333;-46
2024/01/27 03:41:14;;;;;;;20.52;5.47;;;;;;;-0.01;100.00;103305.97;1034414;28;20956;-49
2024/01/27 03:41:46;;;;;;;16.13;6.00;;;;;;;0.01;100.00;103303.28;1035775;28;20309;-47
2024/01/27 03:42:17;;;;;;;18.38;6.00;;;;;;;0.17;100.00;103304.09;1038716;28;20396;-47
2024/01/27 03:42:49;;;;;;;20.60;6.60;;;;;;;0.18;100.00;103311.00;1034141;28;20318;-47
2024/01/27 03:43:21;;;;;;;12.27;5.00;;;;;;;0.16;100.00;103310.25;1034313;28;20293;-46
2024/01/27 03:43:53;;;;;;;22.15;6.43;;;;;;;0.16;100.00;103302.41;1034506;28;20814;-47
2024/01/27 03:44:24;;;;;;;16.70;5.50;;;;;;;0.10;100.00;103302.75;1034842;28;20300;-47
2024/01/27 03:44:56;;;;;;;17.95;5.57;;;;;;;-0.02;100.00;103298.19;1035987;28;20443;-47
2024/01/27 03:45:27;;;;;;;24.83;5.68;;;;;;;-0.12;100.00;103305.72;1038670;28;20296;-47
2024/01/27 03:46:00;;;;;;;19.63;6.68;;;;;;;-0.04;100.00;103307.91;1038019;28;20332;-49
2024/01/27 03:46:31;;;;;;;16.45;6.07;;;;;;;0.05;100.00;103309.19;1038174;28;20481;-46
2024/01/27 03:47:03;;;;;;;14.82;6.30;;;;;;;0.02;100.00;103304.97;1038289;28;20600;-46
2024/01/27 03:47:34;;;;;;;18.83;6.72;;;;;;;0.08;100.00;103301.16;1038419;28;20819;-47
2024/01/27 03:48:06;;;;;;;16.08;6.88;;;;;;;0.11;100.00;103304.44;1038371;28;20300;-47
2024/01/27 03:48:38;;;;;;;24.48;8.15;;;;;;;0.05;100.00;103307.41;1039022;28;20346;-48
2024/01/27 03:49:10;;;;;;;21.27;7.53;;;;;;;0.04;100.00;103303.09;1033694;28;20336;-47
2024/01/27 03:49:42;;;;;;;21.27;6.22;;;;;;;0.15;100.00;103310.34;1034286;28;20827;-47
2024/01/27 03:50:14;;;;;;;18.60;6.57;;;;;;;0.19;100.00;103311.84;1034473;28;20864;-49
2024/01/27 03:50:46;;;;;;;14.93;6.25;;;;;;;0.13;100.00;103313.06;1027185;28;20654;-47
2024/01/27 03:51:17;;;;;;;19.45;7.13;;;;;;;0.17;100.00;103309.31;1030153;28;20301;-47
2024/01/27 03:51:49;;;;;;;19.92;7.63;;;;;;;0.04;100.00;103312.75;1030761;28;20328;-50
2024/01/27 03:52:21;;;;;;;22.60;6.38;;;;;;;-0.16;100.00;103306.00;1034289;28;20762;-49
2024/01/27 03:52:53;;;;;;;16.27;6.75;;;;;;;0.03;100.00;103316.28;1032521;28;20302;-49
2024/01/27 03:53:24;;;;;;;17.90;7.75;;;;;;;0.03;100.00;103306.66;1034745;28;20427;-49
2024/01/27 03:53:56;;;;;;;19.52;6.57;;;;;;;0.02;100.00;103304.97;1032471;28;20449;-49
2024/01/27 03:54:28;;;;;;;13.38;5.88;;;;;;;0.00;100.00;103306.84;1034540;28;20380;-49
2024/01/27 03:54:59;;;;;;;14.35;6.43;;;;;;;-0.13;100.00;103316.31;1038363;28;20311;-48
2024/01/27 03:55:32;;;;;;;19.77;7.10;;;;;;;-0.11;100.00;103320.50;1038424;28;20322;-49
2024/01/27 03:56:04;;;;;;;21.25;7.88;;;;;;;-0.06;100.00;103317.63;1038249;28;20678;-50
2024/01/27 03:56:36;;;;;;;20.48;6.85;;;;;;;-0.01;100.00;103310.34;1038307;28;20304;-51
2024/01/27 03:57:07;;;;;;;18.77;7.22;;;;;;;-0.02;100.00;103311.28;1038312;28;20300;-50
2024/01/27 03:57:39;;;;;;;27.83;6.85;;;;;;;-0.05;100.00;103319.31;1038601;28;20386;-49
2024/01/27 03:58:11;;;;;;;16.83;6.22;;;;;;;-0.01;100.00;103320.84;1038181;28;20306;-50
2024/01/27 03:58:42;;;;;;;19.85;6.50;;;;;;;0.01;100.00;103320.78;1037839;28;20373;-49
2024/01/27 03:59:14;;;;;;;20.38;6.45;;;;;;;0.03;100.00;103318.91;1038113;28;20663;-48
2024/01/27 03:59:45;;;;;;;24.27;7.60;;;;;;;0.09;100.00;103316.78;1038072;28;20295;-50
2024/01/27 04:00:17;;;;;;;26.23;7.53;;;;;;;0.06;100.00;103314.34;1038070;28;20722;-49
2024/01/27 04:00:49;;;;;;;16.42;7.80;;;;;;;0.12;100.00;103315.75;1038188;28;21057;-49
2024/01/27 04:01:22;;;;;;;27.65;8.93;;;;;;;0.10;100.00;103315.84;1037938;28;20564;-49
2024/01/27 04:01:54;;;;;;;24.00;7.25;;;;;;;0.06;100.00;103319.59;1036947;28;20308;-47
2024/01/27 04:02:25;;;;;;;17.90;7.45;;;;;;;-0.04;100.00;103323.63;1038664;28;20448;-47
2024/01/27 04:02:57;;;;;;;27.02;7.05;;;;;;;0.05;100.00;103315.28;1038628;28;20395;-52
2024/01/27 04:03:29;;;;;;;14.68;7.60;;;;;;;0.05;100.00;103315.28;1038601;28;20666;-48
2024/01/27 04:04:01;;;;;;;17.02;7.35;;;;;;;0.08;100.00;103319.50;1038573;28;20306;-49
2024/01/27 04:04:32;;;;;;;15.63;6.65;;;;;;;0.06;100.00;103324.81;1046154;28;20341;-49
2024/01/27 04:05:05;;;;;;;19.42;6.40;;;;;;;0.10;100.00;103321.09;1046188;28;20306;-49
2024/01/27 04:05:37;;;;;;;23.20;7.13;;;;;;;0.04;100.00;103321.44;1046337;28;20294;-46
2024/01/27 04:06:08;;;;;;;20.88;8.02;;;;;;;0.05;100.00;103319.66;1042154;28;20326;-47
2024/01/27 04:06:40;;;;;;;15.30;7.60;;;;;;;0.09;100.00;103327.28;1042552;28;20374;-47
2024/01/27 04:07:12;;;;;;;19.45;7.38;;;;;;;0.08;100.00;103325.56;1042813;28;20310;-49
2024/01/27 04:07:45;;;;;;;23.98;7.85;;;;;;;-0.03;100.00;103318.31;1043542;28;20303;-47
2024/01/27 04:08:17;;;;;;;15.35;6.32;;;;;;;-0.04;100.00;103326.25;1045272;28;20294;-49
2024/01/27 04:08:48;;;;;;;18.80;7.32;;;;;;;-0.02;100.00;103332.25;1047170;28;20286;-51
2024/01/27 04:09:20;;;;;;;26.65;7.82;;;;;;;0.02;100.00;103325.09;1046531;28;20307;-49
2024/01/27 04:09:52;;;;;;;22.95;7.78;;;;;;;0.00;100.00;103322.56;1047145;28;20302;-48
2024/01/27 04:10:23;;;;;;;21.38;7.57;;;;;;;0.06;100.00;103322.22;1047246;28;20302;-50
2024/01/27 04:10:55;;;;;;;21.75;8.30;;;;;;;0.04;100.00;103321.44;1045988;28;20653;-49
2024/01/27 04:11:27;;;;;;;22.58;8.73;;;;;;;0.08;100.00;103328.19;1046821;28;20290;-49
2024/01/27 04:11:58;;;;;;;25.75;7.85;;;;;;;0.03;100.00;103327.63;1047474;28;20356;-49
2024/01/27 04:12:30;;;;;;;21.27;7.82;;;;;;;-0.15;100.00;103328.63;1047512;28;20652;-49
2024/01/27 04:13:02;;;;;;;21.48;7.80;;;;;;;-0.18;100.00;103328.81;1047243;28;20290;-49
2024/01/27 04:13:35;;;;;;;17.40;7.22;;;;;;;0.01;100.00;103334.72;1042377;28;20342;-46
2024/01/27 04:14:06;;;;;;;25.02;8.02;;;;;;;0.08;100.00;103332.59;1042806;28;20386;-49
2024/01/27 04:14:38;;;;;;;29.00;7.68;;;;;;;0.03;100.00;103327.63;1042448;28;20402;-46
2024/01/27 04:15:10;;;;;;;13.85;7.60;;;;;;;0.01;100.00;103334.72;1042473;28;20309;-49
2024/01/27 04:15:42;;;;;;;17.20;6.97;;;;;;;0.02;100.00;103338.19;1043474;28;20511;-50
2024/01/27 04:16:14;;;;;;;18.45;8.13;;;;;;;0.04;100.00;103334.56;1047229;28;20665;-50
2024/01/27 04:16:45;;;;;;;25.08;8.55;;;;;;;-0.03;100.00;103341.03;1046998;28;20299;-49
2024/01/27 04:17:17;;;;;;;20.92;9.18;;;;;;;-0.09;100.00;103333.53;1047647;28;20293;-47
2024/01/27 04:17:49;;;;;;;23.58;6.75;;;;;;;-0.09;100.00;103338.75;1047403;28;20299;-50
2024/01/27 04:18:20;;;;;;;30.02;9.40;;;;;;;-0.05;100.00;103345.53;1042317;28;20303;-46
2024/01/27 04:18:52;;;;;;;17.23;8.73;;;;;;;-0.03;100.00;103349.75;1042804;28;20303;-46
2024/01/27 04:19:24;;;;;;;24.02;8.63;;;;;;;-0.02;100.00;103345.34;1042093;28;20409;-48
2024/01/27 04:19:56;;;;;;;19.15;8.75;;;;;;;-0.05;100.00;103349.00;1043160;28;20299;-48